createdAt,value
2023-01-29T00:01:56.039Z,9.50
2023-01-29T00:04:23.191Z,10.10
2023-01-29T00:06:49.973Z,8.40
2023-01-29T00:09:16.671Z,10.60
2023-01-29T00:11:43.246Z,9.70
2023-01-29T00:14:10.062Z,11.90
2023-01-29T00:16:36.890Z,9.00
2023-01-29T00:19:04.056Z,10.00
2023-01-29T00:21:32.210Z,10.00
2023-01-29T00:23:59.971Z,9.60
2023-01-29T00:26:27.931Z,8.80
2023-01-29T00:28:57.159Z,10.00
2023-01-29T00:31:25.355Z,10.30
2023-01-29T00:33:52.161Z,10.30
2023-01-29T00:36:21.730Z,9.50
2023-01-29T00:38:58.663Z,9.20
2023-01-29T00:41:49.862Z,11.40
2023-01-29T00:44:35.626Z,11.70
2023-01-29T00:47:03.621Z,8.60
2023-01-29T00:49:32.977Z,9.50
2023-01-29T00:52:18.179Z,12.10
2023-01-29T00:54:44.660Z,11.20
2023-01-29T00:57:11.228Z,11.90
2023-01-29T00:59:38.061Z,11.30
2023-01-29T01:02:23.702Z,14.30
2023-01-29T01:04:50.259Z,9.80
2023-01-29T01:07:16.753Z,10.10
2023-01-29T01:10:01.853Z,9.00
2023-01-29T01:12:29.540Z,10.60
2023-01-29T01:14:56.078Z,13.90
2023-01-29T01:17:22.614Z,12.90
2023-01-29T01:19:49.527Z,13.20
2023-01-29T01:22:16.615Z,15.20
2023-01-29T01:24:43.104Z,14.60
2023-01-29T01:27:09.556Z,17.30
2023-01-29T01:29:36.426Z,14.60
2023-01-29T01:32:02.993Z,17.60
2023-01-29T01:34:29.563Z,16.60
2023-01-29T01:36:56.411Z,13.90
2023-01-29T01:39:25.004Z,16.40
2023-01-29T01:41:55.762Z,14.00
2023-01-29T01:45:01.384Z,15.40
2023-01-29T01:47:41.601Z,21.80
2023-01-29T01:50:22.824Z,17.30
2023-01-29T01:52:55.176Z,15.90
2023-01-29T01:55:28.052Z,16.60
2023-01-29T01:58:06.355Z,16.30
2023-01-29T02:00:33.181Z,17.10
2023-01-29T02:03:20.498Z,14.40
2023-01-29T02:06:05.896Z,13.50
2023-01-29T02:09:11.175Z,11.90
2023-01-29T02:14:11.814Z,12.50
2023-01-29T02:16:39.049Z,10.50
2023-01-29T02:19:17.496Z,9.30
2023-01-29T02:22:25.828Z,11.70
2023-01-29T02:25:12.013Z,10.40
2023-01-29T02:28:21.614Z,10.10
2023-01-29T02:31:04.456Z,9.40
2023-01-29T02:33:57.747Z,11.70
2023-01-29T02:37:15.761Z,12.80
2023-01-29T02:40:17.493Z,18.90
2023-01-29T02:42:57.260Z,13.80
2023-01-29T02:45:45.073Z,20.10
2023-01-29T02:48:20.264Z,16.20
2023-01-29T02:50:58.619Z,14.10
2023-01-29T02:53:42.443Z,13.40
2023-01-29T02:56:21.279Z,13.50
2023-01-29T02:59:02.507Z,12.30
2023-01-29T03:01:45.497Z,14.10
2023-01-29T03:04:24.880Z,14.30
2023-01-29T03:07:05.771Z,14.70
2023-01-29T03:09:48.576Z,14.10
2023-01-29T03:12:43.891Z,15.50
2023-01-29T03:15:26.619Z,14.40
2023-01-29T03:18:08.706Z,18.60
2023-01-29T03:20:48.159Z,17.00
2023-01-29T03:23:48.017Z,14.90
2023-01-29T03:26:38.691Z,15.70
2023-01-29T03:29:27.018Z,11.60
2023-01-29T03:32:06.470Z,15.90
2023-01-29T03:34:49.233Z,15.50
2023-01-29T03:37:39.881Z,13.10
2023-01-29T03:40:09.584Z,12.20
2023-01-29T03:42:51.656Z,12.50
2023-01-29T03:45:57.724Z,13.90
2023-01-29T03:48:36.980Z,15.40
2023-01-29T03:51:29.219Z,12.80
2023-01-29T03:54:06.201Z,13.50
2023-01-29T03:56:55.344Z,13.60
2023-01-29T04:00:04.431Z,15.40
2023-01-29T04:02:44.274Z,17.50
2023-01-29T04:05:19.806Z,14.90
2023-01-29T04:07:52.827Z,13.60
2023-01-29T04:10:27.376Z,13.00
2023-01-29T04:13:04.027Z,13.70
2023-01-29T04:15:38.018Z,15.50
2023-01-29T04:18:04.684Z,11.50
2023-01-29T04:20:31.147Z,11.20
2023-01-29T04:22:57.741Z,12.40
2023-01-29T04:25:32.446Z,12.80
2023-01-29T04:28:23.116Z,12.80
2023-01-29T04:31:01.748Z,13.30
2023-01-29T04:34:06.285Z,11.10
2023-01-29T04:37:03.008Z,10.30
2023-01-29T04:39:48.234Z,10.90
2023-01-29T04:42:55.166Z,13.40
2023-01-29T04:46:07.588Z,13.80
2023-01-29T04:49:04.555Z,10.30
2023-01-29T04:51:43.146Z,12.60
2023-01-29T04:54:33.462Z,11.10
2023-01-29T04:57:25.683Z,12.60
2023-01-29T05:00:37.900Z,9.80
2023-01-29T05:03:06.241Z,9.70
2023-01-29T05:05:33.062Z,11.70
2023-01-29T05:08:00.159Z,10.50
2023-01-29T05:10:27.382Z,13.00
2023-01-29T05:13:02.093Z,13.30
2023-01-29T05:15:37.887Z,12.70
2023-01-29T05:18:09.064Z,13.20
2023-01-29T05:20:42.615Z,14.60
2023-01-29T05:23:20.866Z,13.50
2023-01-29T05:25:49.690Z,16.90
2023-01-29T05:28:17.166Z,16.30
2023-01-29T05:30:49.939Z,17.90
2023-01-29T05:33:29.925Z,13.90
2023-01-29T05:35:59.525Z,14.80
2023-01-29T05:38:26.457Z,13.30
2023-01-29T05:40:54.031Z,11.50
2023-01-29T05:43:25.068Z,13.30
2023-01-29T05:46:00.807Z,11.00
2023-01-29T05:48:29.518Z,16.30
2023-01-29T05:51:04.934Z,17.70
2023-01-29T05:53:33.016Z,13.70
2023-01-29T05:56:05.207Z,16.70
2023-01-29T05:58:32.824Z,15.40
2023-01-29T06:01:19.795Z,13.80
2023-01-29T06:03:47.187Z,12.60
2023-01-29T06:06:14.276Z,15.60
2023-01-29T06:08:41.106Z,14.30
2023-01-29T06:11:10.119Z,13.40
2023-01-29T06:13:37.058Z,16.50
2023-01-29T06:16:08.907Z,14.50
2023-01-29T06:18:39.813Z,13.50
2023-01-29T06:21:11.073Z,22.80
2023-01-29T06:23:38.450Z,18.10
2023-01-29T06:26:08.918Z,15.10
2023-01-29T06:28:35.500Z,13.50
2023-01-29T06:31:21.987Z,11.70
2023-01-29T06:33:50.480Z,14.70
2023-01-29T06:36:17.067Z,15.80
2023-01-29T06:38:43.686Z,13.80
2023-01-29T06:41:18.048Z,14.70
2023-01-29T06:43:46.097Z,14.70
2023-01-29T06:46:12.730Z,12.50
2023-01-29T06:48:39.417Z,13.50
2023-01-29T06:51:09.010Z,14.50
2023-01-29T06:53:37.805Z,14.80
2023-01-29T06:56:06.083Z,19.00
2023-01-29T06:58:32.877Z,18.60
2023-01-29T07:01:08.902Z,17.40
2023-01-29T07:03:35.770Z,18.60
2023-01-29T07:06:02.871Z,16.00
2023-01-29T07:08:29.523Z,15.60
2023-01-29T07:11:00.765Z,12.40
2023-01-29T07:13:27.691Z,22.10
2023-01-29T07:15:54.276Z,17.80
2023-01-29T07:18:20.890Z,18.30
2023-01-29T07:20:47.449Z,15.70
2023-01-29T07:23:15.163Z,16.90
2023-01-29T07:25:41.930Z,19.60
2023-01-29T07:28:08.664Z,18.50
2023-01-29T07:30:35.973Z,17.40
2023-01-29T07:33:08.343Z,15.60
2023-01-29T07:35:41.029Z,18.20
2023-01-29T07:38:10.611Z,23.70
2023-01-29T07:40:37.435Z,29.80
2023-01-29T07:43:07.329Z,23.00
2023-01-29T07:45:37.472Z,25.00
2023-01-29T07:48:05.978Z,24.00
2023-01-29T07:50:35.108Z,24.70
2023-01-29T07:53:02.392Z,25.70
2023-01-29T07:55:29.018Z,22.30
2023-01-29T07:57:58.325Z,20.50
2023-01-29T08:00:25.282Z,20.50
2023-01-29T08:02:52.226Z,19.20
2023-01-29T08:05:19.467Z,27.30
2023-01-29T08:07:51.538Z,17.70
2023-01-29T08:10:28.055Z,29.90
2023-01-29T08:13:00.312Z,24.00
2023-01-29T08:15:28.538Z,21.70
2023-01-29T08:17:58.038Z,35.20
2023-01-29T08:20:25.674Z,32.80
2023-01-29T08:23:01.063Z,14.70
2023-01-29T08:25:28.722Z,12.70
2023-01-29T08:27:57.903Z,28.90
2023-01-29T08:30:27.847Z,22.70
2023-01-29T08:32:54.456Z,21.40
2023-01-29T08:35:21.765Z,19.10
2023-01-29T08:37:59.130Z,28.40
2023-01-29T08:40:31.593Z,19.90
2023-01-29T08:43:08.907Z,20.60
2023-01-29T08:45:39.918Z,15.90
2023-01-29T08:48:07.688Z,13.10
2023-01-29T08:50:35.136Z,14.50
2023-01-29T08:53:07.852Z,19.00
2023-01-29T08:55:40.656Z,14.60
2023-01-29T08:58:10.403Z,14.70
2023-01-29T09:00:37.772Z,16.70
2023-01-29T09:03:05.001Z,18.10
2023-01-29T09:05:31.530Z,19.70
2023-01-29T09:07:58.285Z,12.40
2023-01-29T09:10:25.454Z,12.20
2023-01-29T09:12:51.897Z,13.60
2023-01-29T09:15:18.818Z,16.70
2023-01-29T09:17:46.018Z,26.70
2023-01-29T09:20:12.715Z,24.00
2023-01-29T09:22:39.151Z,20.10
2023-01-29T09:25:07.069Z,16.20
2023-01-29T09:27:33.699Z,15.90
2023-01-29T09:30:00.386Z,13.70
2023-01-29T09:32:52.175Z,13.20
2023-01-29T09:35:13.403Z,16.40
2023-01-29T09:37:39.959Z,14.30
2023-01-29T09:40:08.339Z,13.90
2023-01-29T09:42:48.527Z,19.40
2023-01-29T09:45:26.413Z,15.70
2023-01-29T09:47:57.966Z,13.70
2023-01-29T09:50:40.449Z,13.70
2023-01-29T09:53:45.008Z,28.40
2023-01-29T09:56:21.247Z,19.50
2023-01-29T09:58:48.515Z,12.20
2023-01-29T10:01:28.767Z,16.50
2023-01-29T10:04:22.660Z,17.70
2023-01-29T10:07:10.347Z,24.10
2023-01-29T10:10:06.532Z,26.70
2023-01-29T10:13:06.631Z,20.30
2023-01-29T10:16:11.551Z,17.80
2023-01-29T10:19:04.706Z,19.20
2023-01-29T10:22:22.624Z,19.10
2023-01-29T10:25:00.368Z,23.70
2023-01-29T10:27:34.821Z,21.30
2023-01-29T10:30:09.447Z,21.60
2023-01-29T10:32:38.076Z,21.20
2023-01-29T10:35:18.266Z,20.40
2023-01-29T10:37:45.425Z,18.90
2023-01-29T10:40:47.127Z,19.90
2023-01-29T10:43:22.810Z,67.60
2023-01-29T10:46:33.841Z,30.00
2023-01-29T10:49:38.167Z,36.60
2023-01-29T10:52:39.105Z,23.10
2023-01-29T10:55:50.946Z,24.80
2023-01-29T10:58:50.454Z,25.60
2023-01-29T11:01:17.088Z,26.80
2023-01-29T11:03:44.404Z,38.60
2023-01-29T11:06:30.984Z,26.20
2023-01-29T11:09:10.718Z,28.40
2023-01-29T11:11:48.715Z,27.40
2023-01-29T11:14:24.397Z,27.00
2023-01-29T11:16:51.306Z,29.80
2023-01-29T11:19:18.044Z,25.20
2023-01-29T11:21:57.691Z,22.90
2023-01-29T11:24:24.715Z,34.00
2023-01-29T11:26:55.607Z,30.20
2023-01-29T11:29:42.051Z,30.60
2023-01-29T11:32:24.179Z,32.80
2023-01-29T11:35:16.716Z,31.30
2023-01-29T11:37:45.887Z,27.00
2023-01-29T11:40:18.947Z,31.30
2023-01-29T11:42:47.423Z,38.30
2023-01-29T11:45:19.910Z,23.60
2023-01-29T11:47:53.627Z,33.90
2023-01-29T11:50:25.391Z,31.00
2023-01-29T11:52:51.986Z,37.50
2023-01-29T11:55:40.958Z,27.00
2023-01-29T11:58:25.634Z,30.30
2023-01-29T12:00:55.626Z,26.70
2023-01-29T12:03:45.907Z,23.60
2023-01-29T12:06:32.757Z,28.70
2023-01-29T12:09:02.534Z,27.60
2023-01-29T12:11:35.300Z,23.80
2023-01-29T12:14:05.717Z,31.00
2023-01-29T12:16:57.423Z,30.70
2023-01-29T12:19:44.325Z,39.60
2023-01-29T12:22:23.196Z,42.80
2023-01-29T12:25:04.750Z,36.10
2023-01-29T12:27:43.348Z,27.00
2023-01-29T12:30:36.494Z,41.70
2023-01-29T12:33:29.174Z,38.40
2023-01-29T12:36:11.142Z,29.90
2023-01-29T12:38:37.705Z,66.20
2023-01-29T12:41:24.910Z,25.80
2023-01-29T12:44:01.369Z,33.60
2023-01-29T12:46:40.442Z,59.30
2023-01-29T12:49:16.665Z,27.60
2023-01-29T12:52:02.782Z,50.00
2023-01-29T12:54:46.741Z,49.60
2023-01-29T12:57:40.259Z,31.10
2023-01-29T13:00:19.338Z,30.30
2023-01-29T13:03:08.659Z,33.70
2023-01-29T13:05:47.112Z,27.60
2023-01-29T13:08:30.574Z,31.80
2023-01-29T13:11:01.562Z,29.60
2023-01-29T13:13:31.009Z,30.70
2023-01-29T13:15:59.981Z,29.10
2023-01-29T13:18:48.954Z,41.30
2023-01-29T13:21:21.254Z,27.30
2023-01-29T13:23:57.381Z,45.50
2023-01-29T13:26:24.468Z,33.60
2023-01-29T13:28:52.485Z,30.90
2023-01-29T13:31:40.870Z,32.90
2023-01-29T13:34:13.161Z,34.30
2023-01-29T13:36:50.760Z,54.60
2023-01-29T13:39:50.671Z,63.90
2023-01-29T13:42:35.797Z,56.90
2023-01-29T13:45:06.840Z,43.30
2023-01-29T13:47:39.352Z,28.60
2023-01-29T13:50:28.792Z,32.80
2023-01-29T13:53:02.252Z,29.10
2023-01-29T13:55:36.544Z,53.40
2023-01-29T13:58:37.543Z,35.60
2023-01-29T14:01:04.994Z,39.50
2023-01-29T14:03:45.097Z,28.20
2023-01-29T14:06:42.531Z,28.70
2023-01-29T14:09:36.571Z,28.70
2023-01-29T14:12:25.056Z,30.40
2023-01-29T14:15:18.367Z,43.70
2023-01-29T14:18:03.473Z,77.70
2023-01-29T14:20:45.599Z,49.80
2023-01-29T14:23:41.399Z,43.10
2023-01-29T14:26:33.388Z,42.90
2023-01-29T14:29:25.633Z,35.90
2023-01-29T14:32:22.057Z,25.10
2023-01-29T14:34:54.627Z,30.60
2023-01-29T14:37:38.897Z,25.20
2023-01-29T14:40:29.783Z,30.30
2023-01-29T14:43:07.993Z,29.50
2023-01-29T14:45:38.914Z,36.40
2023-01-29T14:48:11.079Z,36.40
2023-01-29T14:50:37.913Z,47.90
2023-01-29T14:53:29.702Z,32.90
2023-01-29T14:56:17.242Z,30.60
2023-01-29T14:58:51.831Z,32.10
2023-01-29T15:01:37.456Z,35.30
2023-01-29T15:04:20.604Z,33.10
2023-01-29T15:06:53.178Z,43.70
2023-01-29T15:09:54.216Z,42.30
2023-01-29T15:12:31.199Z,35.20
2023-01-29T15:15:19.911Z,35.00
2023-01-29T15:18:19.352Z,36.90
2023-01-29T15:20:46.526Z,39.30
2023-01-29T15:23:30.330Z,32.70
2023-01-29T15:26:01.918Z,39.60
2023-01-29T15:28:34.946Z,35.30
2023-01-29T15:31:06.310Z,33.20
2023-01-29T15:33:38.476Z,59.10
2023-01-29T15:36:07.643Z,34.30
2023-01-29T15:38:35.779Z,36.10
2023-01-29T15:41:16.581Z,32.90
2023-01-29T15:43:47.111Z,34.10
2023-01-29T15:46:26.948Z,38.80
2023-01-29T15:48:56.993Z,45.80
2023-01-29T15:51:27.201Z,45.10
2023-01-29T15:54:01.801Z,52.20
2023-01-29T15:56:35.995Z,59.90
2023-01-29T15:59:09.774Z,66.40
2023-01-29T16:01:36.641Z,49.00
2023-01-29T16:04:04.010Z,44.00
2023-01-29T16:06:39.978Z,49.70
2023-01-29T16:09:07.906Z,47.60
2023-01-29T16:11:36.163Z,46.90
2023-01-29T16:14:05.157Z,39.90
2023-01-29T16:16:32.054Z,29.70
2023-01-29T16:19:00.895Z,32.70
2023-01-29T16:21:39.351Z,35.90
2023-01-29T16:24:11.892Z,42.10
2023-01-29T16:26:44.700Z,42.80
2023-01-29T16:29:16.059Z,33.10
2023-01-29T16:31:45.942Z,36.60
2023-01-29T16:34:26.637Z,32.10
2023-01-29T16:36:55.252Z,30.50
2023-01-29T16:39:28.076Z,37.70
2023-01-29T16:42:23.482Z,68.00
2023-01-29T16:45:00.227Z,23.90
2023-01-29T16:47:33.209Z,43.10
2023-01-29T16:50:18.112Z,40.30
2023-01-29T16:52:57.373Z,36.90
2023-01-29T16:55:25.813Z,44.20
2023-01-29T16:57:56.277Z,37.90
2023-01-29T17:00:30.123Z,40.60
2023-01-29T17:03:07.067Z,40.60
2023-01-29T17:05:37.764Z,31.90
2023-01-29T17:08:06.180Z,33.10
2023-01-29T17:10:33.898Z,35.30
2023-01-29T17:13:06.862Z,35.20
2023-01-29T17:15:44.834Z,41.60
2023-01-29T17:18:20.055Z,42.60
2023-01-29T17:20:46.623Z,33.00
2023-01-29T17:23:13.186Z,34.80
2023-01-29T17:25:40.967Z,40.70
2023-01-29T17:28:10.075Z,34.40
2023-01-29T17:30:38.367Z,44.50
2023-01-29T17:33:15.999Z,46.00
2023-01-29T17:35:45.149Z,43.70
2023-01-29T17:38:25.926Z,44.00
2023-01-29T17:40:59.950Z,35.60
2023-01-29T17:43:26.549Z,47.90
2023-01-29T17:45:53.202Z,56.00
2023-01-29T17:48:27.799Z,45.90
2023-01-29T17:50:58.977Z,54.80
2023-01-29T17:53:30.504Z,47.90
2023-01-29T17:56:02.939Z,79.70
2023-01-29T17:58:29.506Z,46.20
2023-01-29T18:00:56.085Z,51.90
2023-01-29T18:03:23.073Z,72.10
2023-01-29T18:05:50.411Z,57.50
2023-01-29T18:08:43.221Z,103.00
2023-01-29T18:11:12.609Z,79.40
2023-01-29T18:13:41.738Z,57.40
2023-01-29T18:16:08.721Z,46.70
2023-01-29T18:18:35.307Z,55.90
2023-01-29T18:21:01.887Z,58.00
2023-01-29T18:23:31.184Z,60.00
2023-01-29T18:25:57.892Z,41.30
2023-01-29T18:28:25.446Z,38.80
2023-01-29T18:30:52.414Z,39.10
2023-01-29T18:33:18.935Z,43.60
2023-01-29T18:35:48.139Z,44.70
2023-01-29T18:38:14.756Z,35.70
2023-01-29T18:40:41.335Z,44.80
2023-01-29T18:43:08.107Z,51.40
2023-01-29T18:45:35.717Z,40.70
2023-01-29T18:48:02.239Z,43.60
2023-01-29T18:50:28.652Z,52.30
2023-01-29T18:52:55.523Z,61.30
2023-01-29T18:55:23.121Z,68.90
2023-01-29T18:58:24.645Z,68.90
2023-01-29T19:00:43.713Z,55.00
2023-01-29T19:03:11.056Z,82.20
2023-01-29T19:05:37.812Z,74.90
2023-01-29T19:08:05.328Z,55.10
2023-01-29T19:10:31.997Z,62.00
2023-01-29T19:12:58.541Z,67.20
2023-01-29T19:15:25.203Z,64.70
2023-01-29T19:17:51.912Z,48.30
2023-01-29T19:20:18.700Z,47.80
2023-01-29T19:22:45.210Z,38.50
2023-01-29T19:25:12.634Z,40.30
2023-01-29T19:27:39.395Z,40.90
2023-01-29T19:30:06.964Z,37.90
2023-01-29T19:32:33.844Z,36.10
2023-01-29T19:35:00.670Z,35.60
2023-01-29T19:37:28.408Z,34.50
2023-01-29T19:39:54.833Z,32.80
2023-01-29T19:42:21.409Z,37.60
2023-01-29T19:44:48.090Z,36.20
2023-01-29T19:47:14.771Z,42.30
2023-01-29T19:49:41.464Z,40.50
2023-01-29T19:52:14.781Z,43.90
2023-01-29T19:54:46.646Z,37.30
2023-01-29T19:57:13.158Z,43.70
2023-01-29T19:59:39.595Z,36.30
2023-01-29T20:02:06.510Z,32.10
2023-01-29T20:04:33.168Z,59.60
2023-01-29T20:06:59.667Z,40.70
2023-01-29T20:09:26.268Z,34.20
2023-01-29T20:11:52.868Z,73.10
2023-01-29T20:14:19.509Z,60.60
2023-01-29T20:16:45.992Z,50.60
2023-01-29T20:19:13.749Z,46.60
2023-01-29T20:21:41.787Z,50.00
2023-01-29T20:24:12.249Z,46.90
2023-01-29T20:26:39.000Z,42.90
2023-01-29T20:29:06.538Z,41.40
2023-01-29T20:31:33.659Z,43.60
2023-01-29T20:34:00.498Z,43.70
2023-01-29T20:36:26.970Z,37.90
2023-01-29T20:38:53.488Z,38.60
2023-01-29T20:41:21.123Z,48.30
2023-01-29T20:43:50.119Z,41.50
2023-01-29T20:46:17.713Z,37.70
2023-01-29T20:48:44.132Z,33.20
2023-01-29T20:51:15.786Z,34.90
2023-01-29T20:53:45.432Z,33.80
2023-01-29T20:56:13.950Z,43.10
2023-01-29T20:58:41.152Z,29.50
2023-01-29T21:01:13.309Z,26.30
2023-01-29T21:03:40.154Z,29.80
2023-01-29T21:06:09.269Z,34.00
2023-01-29T21:08:37.008Z,28.00
2023-01-29T21:11:05.201Z,29.90
2023-01-29T21:13:31.817Z,25.70
2023-01-29T21:15:58.992Z,30.60
2023-01-29T21:18:26.377Z,32.10
2023-01-29T21:20:53.755Z,26.90
2023-01-29T21:23:20.896Z,43.70
2023-01-29T21:25:48.038Z,44.60
2023-01-29T21:28:16.032Z,55.60
2023-01-29T21:30:42.785Z,71.30
2023-01-29T21:33:09.277Z,52.90
2023-01-29T21:35:37.739Z,68.20
2023-01-29T21:38:04.825Z,35.60
2023-01-29T21:40:31.670Z,24.90
2023-01-29T21:43:13.341Z,34.80
2023-01-29T21:45:41.500Z,34.10
2023-01-29T21:48:11.059Z,28.90
2023-01-29T21:50:38.435Z,25.50
2023-01-29T21:53:05.077Z,26.30
2023-01-29T21:55:32.500Z,35.70
2023-01-29T21:58:00.271Z,27.50
2023-01-29T22:00:27.399Z,25.90
2023-01-29T22:02:53.867Z,72.70
2023-01-29T22:05:20.563Z,75.60
2023-01-29T22:07:48.406Z,46.60
2023-01-29T22:10:17.972Z,29.90
2023-01-29T22:12:45.077Z,28.50
2023-01-29T22:15:12.881Z,23.60
2023-01-29T22:17:43.737Z,24.00
2023-01-29T22:20:13.667Z,35.30
2023-01-29T22:22:40.344Z,26.80
2023-01-29T22:25:07.877Z,34.00
2023-01-29T22:27:34.753Z,24.50
2023-01-29T22:30:01.341Z,20.60
2023-01-29T22:32:28.106Z,30.30
2023-01-29T22:34:54.640Z,23.50
2023-01-29T22:37:21.179Z,23.20
2023-01-29T22:39:47.613Z,24.20
2023-01-29T22:42:14.331Z,21.90
2023-01-29T22:44:41.335Z,20.10
2023-01-29T22:47:07.773Z,17.30
2023-01-29T22:49:34.211Z,31.70
2023-01-29T22:52:10.097Z,52.20
2023-01-29T22:54:38.777Z,37.40
2023-01-29T22:57:06.148Z,29.00
2023-01-29T22:59:33.548Z,19.20
2023-01-29T23:02:00.376Z,18.70
2023-01-29T23:04:27.426Z,15.80
2023-01-29T23:06:54.319Z,28.50
2023-01-29T23:09:20.936Z,19.80
2023-01-29T23:11:47.563Z,32.80
2023-01-29T23:14:14.071Z,23.60
2023-01-29T23:16:40.575Z,24.80
2023-01-29T23:19:07.402Z,22.60
2023-01-29T23:21:33.949Z,24.60
2023-01-29T23:24:01.224Z,21.20
2023-01-29T23:26:47.531Z,25.00
2023-01-29T23:29:15.092Z,20.10
2023-01-29T23:31:41.776Z,19.80
2023-01-29T23:34:08.354Z,17.10
2023-01-29T23:36:34.862Z,18.70
2023-01-29T23:39:01.426Z,16.80
2023-01-29T23:41:28.466Z,18.50
2023-01-29T23:43:54.958Z,16.10
2023-01-29T23:46:21.502Z,16.80
2023-01-29T23:48:47.981Z,21.60
2023-01-29T23:51:14.415Z,23.40
2023-01-29T23:53:41.178Z,25.90
2023-01-29T23:56:08.120Z,38.90
2023-01-29T23:58:34.869Z,27.30
